Time;durP1;ratioP1;P1;durP2;ratioP2;P2;SDS_P1;SDS_P2;PMS_P1;PMS_P2;Temp;Humidity;BMP_temperature;BMP_pressure;BME280_temperature;BME280_humidity;BME280_pressure;Samples;Min_cycle;Max_cycle;Signal;HPM_P1;HPM_P2
2022/06/12 00:01:09;;;;;;;;;5.00;5.00;;;;;21.29;41.53;101903.41;5086805;27;45427;-66
2022/06/12 00:03:35;;;;;;;;;6.33;5.00;;;;;21.29;41.63;101905.25;5104564;27;45408;-66
2022/06/12 00:06:03;;;;;;;;;3.67;3.00;;;;;21.28;41.94;101903.41;5097597;27;45583;-67
2022/06/12 00:08:31;;;;;;;;;3.33;2.67;;;;;21.28;41.94;101908.84;5098614;27;47776;-69
2022/06/12 00:10:58;;;;;;;;;3.67;3.00;;;;;21.25;41.90;101901.63;5102155;27;45377;-68
2022/06/12 00:13:31;;;;;;;;;9.67;3.67;;;;;21.23;41.50;101899.78;5106370;27;45531;-67
2022/06/12 00:15:58;;;;;;;;;3.67;2.00;;;;;21.19;41.66;101898.00;5112132;27;45522;-68
2022/06/12 00:18:24;;;;;;;;;5.33;1.00;;;;;20.97;41.79;101868.09;5101479;27;46793;-69
2022/06/12 00:21:10;;;;;;;;;4.00;2.33;;;;;21.10;41.59;101901.59;5109452;27;45133;-67
2022/06/12 00:23:35;;;;;;;;;2.67;2.67;;;;;21.07;42.09;101899.78;5113964;27;45239;-69
2022/06/12 00:26:01;;;;;;;;;6.00;3.00;;;;;20.92;42.05;101865.34;5123080;27;45045;-67
2022/06/12 00:28:26;;;;;;;;;2.00;0.00;;;;;21.07;42.00;101890.72;5118746;27;45723;-67
2022/06/12 00:30:51;;;;;;;;;4.00;2.00;;;;;21.05;42.02;101895.25;5120311;27;45669;-68
2022/06/12 00:33:17;;;;;;;;;6.00;4.00;;;;;20.57;41.91;101819.06;5088646;27;45538;-67
2022/06/12 00:35:42;;;;;;;;;2.00;1.33;;;;;21.02;42.09;101893.44;5082201;27;45418;-68
2022/06/12 00:38:07;;;;;;;;;1.00;1.00;;;;;20.98;42.28;101897.94;5087108;27;45367;-68
2022/06/12 00:40:33;;;;;;;;;4.00;1.00;;;;;20.93;42.42;101901.56;5081841;27;45412;-68
2022/06/12 00:43:01;;;;;;;;;2.00;2.00;;;;;20.69;42.18;101872.53;5081516;27;45580;-67
2022/06/12 00:45:29;;;;;;;;;1.00;1.00;;;;;20.84;42.51;101890.66;5077947;27;45337;-65
2022/06/12 00:47:56;;;;;;;;;2.00;2.00;;;;;20.72;42.49;101878.91;5090362;27;46466;-68
2022/06/12 00:50:22;;;;;;;;;4.00;2.00;;;;;20.88;42.65;101906.09;5077087;27;45426;-68
2022/06/12 00:52:50;;;;;;;;;3.00;2.00;;;;;20.86;42.86;101899.75;5088614;27;45385;-71
2022/06/12 00:55:29;;;;;;;;;2.00;2.00;;;;;20.81;42.91;101905.16;5086262;27;45602;-68
2022/06/12 00:58:08;;;;;;;;;1.67;1.00;;;;;20.77;43.31;101898.84;5066868;27;46197;-67
2022/06/12 01:00:34;;;;;;;;;1.00;1.00;;;;;20.70;42.83;101891.53;5080405;27;45477;-67
2022/06/12 01:02:59;;;;;;;;;2.67;0.67;;;;;20.75;43.12;101897.91;5082292;27;45471;-67
2022/06/12 01:08:11;;;;;;;;;0.00;0.00;;;;;20.60;43.33;101884.25;5079750;27;45855;-67
2022/06/12 01:10:41;;;;;;;;;4.67;3.00;;;;;20.66;43.33;101894.28;5076902;27;45458;-67
2022/06/12 01:13:17;;;;;;;;;3.00;1.00;;;;;20.61;43.49;101900.53;5085199;27;45560;-67
2022/06/12 01:15:50;;;;;;;;;3.33;0.33;;;;;20.64;43.38;101912.34;5079497;27;45871;-67
2022/06/12 01:18:21;;;;;;;;;3.00;1.00;;;;;20.60;43.46;101905.97;5077775;27;45721;-68
2022/06/12 01:21:24;;;;;;;;;1.00;1.00;;;;;20.58;43.52;101915.94;5080310;27;45539;-65
2022/06/12 01:24:08;;;;;;;;;1.67;1.67;;;;;20.59;43.49;101909.56;5081511;27;45484;-65
2022/06/12 01:27:18;;;;;;;;;1.00;1.00;;;;;20.54;43.85;101911.38;5077394;27;45478;-68
2022/06/12 01:29:52;;;;;;;;;2.00;2.00;;;;;20.43;43.93;101911.34;5082415;27;46164;-67
2022/06/12 01:32:23;;;;;;;;;5.00;2.67;;;;;20.32;44.03;101911.28;5085689;27;45562;-67
2022/06/12 01:34:55;;;;;;;;;1.67;1.00;;;;;20.20;44.42;101909.44;5105174;27;45293;-67
2022/06/12 01:37:55;;;;;;;;;2.00;2.00;;;;;20.20;44.35;101914.84;5107609;27;45467;-65
2022/06/12 01:40:51;;;;;;;;;1.00;1.00;;;;;20.14;44.54;101913.91;5087823;27;46348;-65
2022/06/12 01:43:38;;;;;;;;;1.00;1.00;;;;;20.00;44.66;101914.75;5102082;27;45651;-67
2022/06/12 01:46:12;;;;;;;;;1.00;1.00;;;;;19.93;45.09;101910.19;5097924;27;45523;-67
2022/06/12 01:48:48;;;;;;;;;1.00;1.00;;;;;19.97;44.97;101908.41;5096456;27;45851;-66
2022/06/12 01:51:59;;;;;;;;;2.67;0.00;;;;;19.96;44.68;101912.00;5103194;27;46152;-66
2022/06/12 01:54:39;;;;;;;;;2.33;1.00;;;;;19.99;44.76;101914.72;5097914;27;45544;-68
2022/06/12 01:57:11;;;;;;;;;4.00;2.00;;;;;20.01;44.67;101919.28;5098966;27;45444;-66
2022/06/12 01:59:49;;;;;;;;;1.33;1.33;;;;;19.92;44.87;101921.94;5095277;27;45472;-67
2022/06/12 02:02:17;;;;;;;;;1.33;1.00;;;;;19.99;44.80;101922.88;5104234;27;46117;-65
2022/06/12 02:04:51;;;;;;;;;2.33;2.33;;;;;19.90;44.65;101912.88;5100754;27;45258;-64
2022/06/12 02:07:42;;;;;;;;;3.00;1.00;;;;;19.94;44.89;101911.97;5098333;27;45369;-65
2022/06/12 02:10:15;;;;;;;;;2.00;1.67;;;;;19.89;44.95;101925.50;5100292;27;45375;-66
2022/06/12 02:15:35;;;;;;;;;4.00;0.67;;;;;19.74;45.21;101905.50;5097999;27;45332;-65
2022/06/12 02:18:10;;;;;;;;;3.00;1.00;;;;;19.74;45.26;101914.53;5100663;27;45403;-66
2022/06/12 02:20:40;;;;;;;;;3.00;2.00;;;;;19.79;45.29;101928.16;5108821;27;45353;-66
2022/06/12 02:23:14;;;;;;;;;4.00;2.67;;;;;19.80;45.11;101927.25;5096432;27;45436;-65
2022/06/12 02:25:43;;;;;;;;;2.00;0.67;;;;;19.72;45.21;101912.72;5110014;27;45422;-66
2022/06/12 02:28:22;;;;;;;;;4.67;3.33;;;;;19.46;45.64;101889.91;5102312;27;45474;-64
2022/06/12 02:30:57;;;;;;;;;4.00;1.33;;;;;19.58;45.41;101924.34;5105233;27;45542;-65
2022/06/12 02:33:28;;;;;;;;;3.00;2.00;;;;;19.58;45.50;101923.44;5104209;27;47108;-65
2022/06/12 02:36:09;;;;;;;;;1.00;1.00;;;;;19.58;45.67;101927.06;5102880;27;45341;-65
2022/06/12 02:38:40;;;;;;;;;1.33;1.33;;;;;19.52;45.80;101933.34;5098890;27;45358;-65
2022/06/12 02:41:12;;;;;;;;;1.00;1.00;;;;;19.54;45.82;101930.66;5102072;27;45250;-67
2022/06/12 02:43:40;;;;;;;;;3.00;2.00;;;;;19.49;45.80;101929.72;5097311;27;45020;-64
2022/06/12 02:46:14;;;;;;;;;3.00;1.33;;;;;19.46;46.14;101927.88;5095161;27;45510;-64
2022/06/12 02:48:40;;;;;;;;;2.00;1.00;;;;;19.44;46.14;101932.38;5095915;27;45540;-65
2022/06/12 02:51:17;;;;;;;;;2.00;0.00;;;;;19.40;46.19;101935.03;5103990;27;45671;-65
2022/06/12 02:53:59;;;;;;;;;2.00;1.00;;;;;19.42;46.18;101927.81;5097064;27;46439;-66
2022/06/12 02:56:50;;;;;;;;;1.67;1.33;;;;;19.34;46.13;101916.94;5104374;27;45302;-64
2022/06/12 02:59:38;;;;;;;;;1.00;1.00;;;;;19.41;46.24;101923.31;5068761;27;45590;-66
2022/06/12 03:02:26;;;;;;;;;4.67;2.00;;;;;19.37;46.29;101926.88;5098670;27;45629;-67
2022/06/12 03:05:06;;;;;;;;;1.00;1.00;;;;;19.25;46.80;101923.16;5106463;27;46513;-66
2022/06/12 03:07:32;;;;;;;;;2.67;2.67;;;;;19.28;46.46;101919.59;5097326;27;45377;-65
2022/06/12 03:10:01;;;;;;;;;3.00;3.00;;;;;19.31;46.67;101925.03;5097499;27;45607;-64
2022/06/12 03:12:28;;;;;;;;;3.00;2.00;;;;;19.19;46.59;101908.66;5096307;27;46007;-66
2022/06/12 03:14:54;;;;;;;;;1.00;1.00;;;;;19.32;46.55;101919.63;5105998;27;45451;-66
2022/06/12 03:17:21;;;;;;;;;1.67;0.33;;;;;19.34;46.49;101917.84;5097185;27;45441;-66
2022/06/12 03:19:51;;;;;;;;;2.33;1.67;;;;;19.31;46.51;101934.06;5096770;27;45441;-65
2022/06/12 03:22:35;;;;;;;;;1.33;1.33;;;;;19.31;46.83;101923.22;5097518;27;45676;-65
2022/06/12 03:25:06;;;;;;;;;1.33;1.00;;;;;19.33;46.93;101920.53;5095115;27;45318;-66
2022/06/12 03:28:07;;;;;;;;;1.67;1.00;;;;;19.34;46.95;101927.78;5105675;27;45485;-66
2022/06/12 03:30:40;;;;;;;;;3.00;2.00;;;;;19.33;46.88;101925.94;5103479;27;45633;-66
2022/06/12 03:33:32;;;;;;;;;3.33;2.00;;;;;19.31;46.64;101927.75;5099760;27;45433;-65
2022/06/12 03:36:14;;;;;;;;;3.67;1.67;;;;;19.27;46.79;101921.41;5097325;27;46209;-64
2022/06/12 03:39:00;;;;;;;;;1.33;1.00;;;;;18.90;47.06;101847.00;5098427;27;45380;-65
2022/06/12 03:41:36;;;;;;;;;3.33;2.00;;;;;19.11;46.86;101895.94;5099061;27;45508;-66
2022/06/12 03:45:01;;;;;;;;;5.67;2.00;;;;;19.27;47.01;101920.47;5098357;27;45515;-69
2022/06/12 03:47:47;;;;;;;;;3.33;2.00;;;;;19.27;47.00;101923.16;5047382;28;46362;-67
2022/06/12 03:50:26;;;;;;;;;3.33;2.33;;;;;19.24;47.04;101924.06;5050963;28;45458;-65
2022/06/12 03:53:01;;;;;;;;;3.67;1.33;;;;;19.21;47.09;101926.75;5096459;27;45599;-68
2022/06/12 03:58:27;;;;;;;;;4.67;3.00;;;;;19.22;47.21;101928.56;5060949;27;45427;-70
2022/06/12 04:00:55;;;;;;;;;1.67;1.00;;;;;19.08;47.29;101914.88;5103641;27;45489;-67
2022/06/12 04:03:23;;;;;;;;;3.67;2.33;;;;;19.18;47.25;101918.59;5102932;27;45423;-67
2022/06/12 04:05:54;;;;;;;;;2.00;1.00;;;;;19.11;47.66;101917.63;5101005;27;45482;-66
2022/06/12 04:08:43;;;;;;;;;1.33;1.33;;;;;18.96;48.05;101894.00;5099182;27;45395;-65
2022/06/12 04:11:12;;;;;;;;;2.00;2.00;;;;;19.07;47.82;101906.72;5099610;27;45578;-66
2022/06/12 04:13:40;;;;;;;;;3.00;0.00;;;;;19.04;48.11;101910.34;5099595;27;45585;-65
2022/06/12 04:16:17;;;;;;;;;1.00;1.00;;;;;18.85;48.14;101887.56;5107512;27;45410;-66
2022/06/12 04:18:42;;;;;;;;;2.00;0.33;;;;;18.96;48.56;101915.66;5101416;27;45444;-69
2022/06/12 04:21:16;;;;;;;;;6.00;1.00;;;;;18.99;48.52;101901.25;5098324;27;45376;-66
2022/06/12 04:23:50;;;;;;;;;2.33;2.00;;;;;19.05;48.41;101912.13;5099177;27;45458;-67
2022/06/12 04:26:22;;;;;;;;;2.00;2.00;;;;;19.04;48.39;101912.13;5105174;27;45411;-67
2022/06/12 04:28:59;;;;;;;;;2.00;2.00;;;;;19.06;48.50;101915.78;5104613;27;47374;-67
2022/06/12 04:31:25;;;;;;;;;2.33;2.33;;;;;19.06;48.57;101904.94;5102466;27;45360;-66
2022/06/12 04:34:05;;;;;;;;;5.67;3.00;;;;;19.12;48.60;101922.16;5105418;27;45355;-66
2022/06/12 04:36:31;;;;;;;;;3.67;2.67;;;;;19.13;48.70;101923.94;5101420;27;45557;-65
2022/06/12 04:38:57;;;;;;;;;3.33;2.00;;;;;19.14;48.70;101930.31;5103873;27;45416;-67
2022/06/12 04:41:29;;;;;;;;;1.00;1.00;;;;;19.14;48.56;101933.00;5101185;27;45459;-67
2022/06/12 04:43:54;;;;;;;;;3.00;1.67;;;;;19.05;48.64;101920.25;5100817;27;45445;-67
2022/06/12 04:46:21;;;;;;;;;5.00;2.00;;;;;19.09;48.79;101935.66;5099120;27;45576;-65
2022/06/12 04:48:50;;;;;;;;;2.33;1.33;;;;;19.13;48.45;101928.47;5097708;27;46221;-67
2022/06/12 04:51:16;;;;;;;;;1.67;1.67;;;;;19.03;48.56;101904.91;5104353;27;45329;-66
2022/06/12 04:53:44;;;;;;;;;5.67;3.67;;;;;18.95;48.82;101891.28;5110732;27;45401;-66
2022/06/12 04:56:10;;;;;;;;;1.00;1.00;;;;;19.09;49.06;101918.47;5108333;27;45413;-66
2022/06/12 04:58:37;;;;;;;;;1.67;1.67;;;;;19.11;48.80;101916.72;5099627;27;46322;-65
2022/06/12 05:01:03;;;;;;;;;3.33;2.00;;;;;18.99;48.80;101898.56;5099915;27;45453;-65
2022/06/12 05:03:28;;;;;;;;;3.00;2.00;;;;;18.96;48.56;101888.59;5101133;27;45570;-66
2022/06/12 05:05:54;;;;;;;;;5.00;2.00;;;;;19.06;48.90;101913.06;5101085;27;45305;-64
2022/06/12 05:08:20;;;;;;;;;3.00;1.67;;;;;19.07;48.84;101913.09;5097055;27;46244;-63
2022/06/12 05:10:46;;;;;;;;;1.67;1.00;;;;;19.03;48.92;101915.75;5097377;27;45639;-65
2022/06/12 05:13:12;;;;;;;;;4.67;3.00;;;;;18.98;48.86;101906.66;5098819;27;45631;-65
2022/06/12 05:15:38;;;;;;;;;2.00;2.00;;;;;19.12;48.63;101921.22;5108281;27;45468;-66
2022/06/12 05:18:06;;;;;;;;;2.67;1.00;;;;;19.13;48.52;101904.09;5098910;27;45475;-67
2022/06/12 05:20:36;;;;;;;;;4.00;2.00;;;;;19.14;48.45;101898.69;5097997;27;45299;-67
2022/06/12 05:23:03;;;;;;;;;2.33;1.00;;;;;19.18;48.14;101906.84;5103458;27;45804;-63
2022/06/12 05:25:30;;;;;;;;;3.00;3.00;;;;;19.02;48.45;101884.13;5097561;27;45410;-65
2022/06/12 05:27:56;;;;;;;;;3.00;3.00;;;;;19.13;48.84;101915.81;5103319;27;46941;-66
2022/06/12 05:30:24;;;;;;;;;2.67;1.00;;;;;19.11;48.12;101905.88;5105242;27;45350;-64
2022/06/12 05:32:52;;;;;;;;;2.00;2.00;;;;;19.11;48.33;101912.19;5104848;27;45618;-66
2022/06/12 05:35:19;;;;;;;;;1.33;1.33;;;;;19.15;48.21;101916.78;5100849;27;45495;-67
2022/06/12 05:37:45;;;;;;;;;2.00;1.00;;;;;19.19;47.86;101912.28;5100470;27;47345;-65
2022/06/12 05:40:16;;;;;;;;;4.67;2.00;;;;;19.22;47.72;101915.03;5099927;27;45441;-67
2022/06/12 05:42:42;;;;;;;;;2.00;1.00;;;;;19.14;47.67;101889.66;5099317;27;45899;-65
2022/06/12 05:45:12;;;;;;;;;2.33;2.00;;;;;19.26;47.33;101911.44;5098691;27;45577;-67
2022/06/12 05:47:44;;;;;;;;;1.00;1.00;;;;;19.27;47.69;101905.13;5098670;27;46186;-64
2022/06/12 05:50:11;;;;;;;;;3.67;1.33;;;;;19.27;47.12;101896.06;5096110;27;45434;-66
2022/06/12 05:52:36;;;;;;;;;1.67;1.00;;;;;19.26;47.02;101913.25;5106859;27;45503;-65
2022/06/12 05:55:03;;;;;;;;;1.67;1.67;;;;;19.10;47.08;101899.53;5105141;27;45551;-65
2022/06/12 05:57:28;;;;;;;;;4.00;2.00;;;;;19.25;46.92;101924.97;5103016;27;46188;-68
2022/06/12 05:59:53;;;;;;;;;3.33;1.67;;;;;19.27;46.78;101926.81;5102067;27;45289;-69
2022/06/12 06:02:19;;;;;;;;;2.67;2.33;;;;;19.33;46.62;101928.66;5100542;27;45857;-65
2022/06/12 06:04:44;;;;;;;;;2.67;1.33;;;;;19.29;46.45;101924.13;5099154;27;45348;-70
2022/06/12 06:07:10;;;;;;;;;1.33;1.00;;;;;19.21;46.48;101901.47;5098732;27;45999;-64
2022/06/12 06:09:35;;;;;;;;;7.00;4.00;;;;;19.39;46.27;101933.25;5099588;27;45412;-67
2022/06/12 06:12:00;;;;;;;;;1.67;1.67;;;;;19.42;46.19;101938.66;5098525;27;45560;-65
2022/06/12 06:14:25;;;;;;;;;4.00;2.33;;;;;19.45;45.88;101936.91;5107225;27;45620;-67
2022/06/12 06:16:51;;;;;;;;;3.67;3.00;;;;;19.32;45.84;101916.91;5101535;27;46171;-66
2022/06/12 06:19:17;;;;;;;;;7.00;3.00;;;;;19.45;45.69;101934.19;5101601;27;45408;-65
2022/06/12 06:21:42;;;;;;;;;3.00;1.00;;;;;19.38;46.31;101931.41;5098432;27;45401;-65
2022/06/12 06:24:09;;;;;;;;;2.00;1.33;;;;;19.35;46.16;101924.16;5096936;27;45532;-67
2022/06/12 06:26:35;;;;;;;;;4.00;2.33;;;;;19.40;45.45;101933.25;5096149;27;45727;-66
2022/06/12 06:29:00;;;;;;;;;5.00;2.00;;;;;19.44;45.75;101940.50;5107400;27;45496;-64
2022/06/12 06:31:26;;;;;;;;;1.00;1.00;;;;;19.44;45.26;101940.50;5092139;27;45525;-66
2022/06/12 06:33:54;;;;;;;;;1.00;1.00;;;;;19.43;45.40;101944.09;5102238;27;45641;-64
2022/06/12 06:36:20;;;;;;;;;3.67;2.00;;;;;19.45;45.25;101947.75;5098240;27;46273;-64
2022/06/12 06:38:46;;;;;;;;;3.00;2.00;;;;;19.48;45.20;101953.19;5100960;27;46016;-66
2022/06/12 06:41:12;;;;;;;;;2.00;2.00;;;;;19.52;45.02;101946.91;5106682;27;46421;-65
2022/06/12 06:46:22;;;;;;;;;1.00;1.00;;;;;19.67;45.03;101945.22;5101121;27;45409;-65
2022/06/12 06:48:48;;;;;;;;;5.00;3.67;;;;;19.75;45.15;101950.69;5096358;27;45465;-65
2022/06/12 06:51:13;;;;;;;;;1.00;1.00;;;;;19.66;44.91;101925.31;5095786;27;45431;-65
2022/06/12 06:53:39;;;;;;;;;1.00;1.00;;;;;19.88;45.15;101955.34;5102851;27;45643;-66
2022/06/12 06:56:05;;;;;;;;;5.67;4.00;;;;;19.94;44.63;101951.78;5105705;27;46163;-67
2022/06/12 06:58:31;;;;;;;;;3.00;1.33;;;;;20.05;44.36;101952.75;5101135;27;45404;-68
2022/06/12 07:00:57;;;;;;;;;1.00;1.00;;;;;20.13;43.74;101952.78;5097185;27;45417;-65
2022/06/12 07:03:24;;;;;;;;;3.33;1.67;;;;;20.09;43.79;101951.88;5101153;27;45559;-65
2022/06/12 07:05:51;;;;;;;;;4.33;2.00;;;;;19.97;43.58;101930.09;5098397;27;45457;-64
2022/06/12 07:08:18;;;;;;;;;1.67;1.67;;;;;20.20;43.71;101949.22;5097421;27;45497;-65
2022/06/12 07:10:45;;;;;;;;;1.67;1.67;;;;;20.30;43.63;101948.38;5101870;27;45534;-66
2022/06/12 07:13:11;;;;;;;;;4.33;3.67;;;;;20.37;43.74;101941.16;5095676;27;45524;-66
2022/06/12 07:15:37;;;;;;;;;3.33;1.33;;;;;20.38;43.43;101932.13;5101108;27;46093;-66
2022/06/12 07:18:05;;;;;;;;;0.33;0.00;;;;;20.57;42.64;101962.97;5090691;27;45424;-65
2022/06/12 07:20:35;;;;;;;;;2.33;2.33;;;;;20.55;42.79;101945.78;5103906;27;45488;-66
2022/06/12 07:23:03;;;;;;;;;4.00;2.33;;;;;20.66;42.53;101963.06;5098376;27;45488;-67
2022/06/12 07:25:30;;;;;;;;;2.33;1.00;;;;;20.64;42.63;101937.72;5096216;27;46436;-66
2022/06/12 07:27:55;;;;;;;;;2.00;2.00;;;;;20.80;42.16;101952.22;5099864;27;45365;-67
2022/06/12 07:30:22;;;;;;;;;1.67;1.67;;;;;20.87;42.24;101953.16;5102181;27;45425;-67
2022/06/12 07:32:48;;;;;;;;;2.00;2.00;;;;;20.82;42.28;101944.09;5101869;27;45336;-65
2022/06/12 07:35:14;;;;;;;;;4.33;2.00;;;;;20.93;42.20;101950.47;5104880;27;46073;-65
2022/06/12 07:37:40;;;;;;;;;4.33;1.67;;;;;20.97;42.50;101952.31;5099336;27;45417;-66
2022/06/12 07:40:09;;;;;;;;;3.00;2.00;;;;;21.09;42.42;101951.44;5100953;27;45501;-67
2022/06/12 07:42:34;;;;;;;;;1.00;1.00;;;;;21.26;42.14;101946.00;5105073;27;45615;-67
2022/06/12 07:44:59;;;;;;;;;1.00;1.00;;;;;21.41;42.12;101951.44;5097257;27;46196;-68
2022/06/12 07:47:25;;;;;;;;;1.67;1.67;;;;;21.58;41.97;101953.31;5102894;27;45471;-69
2022/06/12 07:49:50;;;;;;;;;2.33;1.00;;;;;21.81;41.25;101961.44;5090679;27;45543;-66
2022/06/12 07:52:16;;;;;;;;;2.33;2.33;;;;;21.84;40.66;101935.13;5095754;27;45330;-66
2022/06/12 07:54:42;;;;;;;;;1.00;1.00;;;;;22.09;40.84;101960.53;5104266;27;47108;-67
2022/06/12 07:57:08;;;;;;;;;1.00;1.00;;;;;22.08;40.30;101953.25;5104921;27;45385;-66
2022/06/12 07:59:34;;;;;;;;;2.00;1.00;;;;;22.05;40.76;101947.81;5121029;27;45165;-66
2022/06/12 08:01:59;;;;;;;;;2.67;2.67;;;;;22.14;40.62;101956.88;5124077;27;45152;-65
2022/06/12 08:04:25;;;;;;;;;3.00;1.00;;;;;22.18;40.33;101951.41;5122682;27;45979;-64
2022/06/12 08:06:51;;;;;;;;;4.67;3.00;;;;;22.26;40.64;101949.59;5123475;27;44993;-67
2022/06/12 08:09:18;;;;;;;;;6.00;3.00;;;;;22.29;40.07;101946.00;5107868;27;45893;-65
2022/06/12 08:11:45;;;;;;;;;2.00;2.00;;;;;22.38;39.42;101954.13;5096442;27;45408;-68
2022/06/12 08:14:12;;;;;;;;;3.00;2.00;;;;;22.46;38.92;101954.09;5094594;27;45635;-65
2022/06/12 08:16:39;;;;;;;;;1.00;1.00;;;;;22.52;38.38;101954.09;5098221;27;45501;-65
2022/06/12 08:20:24;;;;;;;;;2.00;1.33;;;;;22.51;38.28;101948.63;5102925;27;45409;-67
2022/06/12 08:21:50;;;;;;;;;2.33;2.00;;;;;22.64;38.36;101945.84;5097182;27;45559;-65
2022/06/12 08:24:15;;;;;;;;;5.00;1.00;;;;;22.67;38.75;101931.31;5094490;27;46203;-64
2022/06/12 08:26:41;;;;;;;;;5.33;1.00;;;;;22.75;37.56;101937.63;5082660;27;45320;-65
2022/06/12 08:29:10;;;;;;;;;2.33;1.33;;;;;22.78;37.82;101936.69;5107803;27;45396;-65
2022/06/12 08:31:45;;;;;;;;;0.33;0.33;;;;;22.82;37.63;101933.94;5099920;27;45342;-65
2022/06/12 08:34:16;;;;;;;;;1.00;1.00;;;;;22.82;36.19;101917.59;5098589;27;45435;-65
2022/06/12 08:36:41;;;;;;;;;2.67;1.00;;;;;22.96;36.40;101930.22;5100936;27;46132;-66
2022/06/12 08:39:08;;;;;;;;;9.00;7.00;;;;;23.04;36.85;101922.91;5101346;27;45277;-68
2022/06/12 08:41:50;;;;;;;;;2.00;1.00;;;;;23.07;36.36;101927.50;5097384;27;45569;-64
2022/06/12 08:44:21;;;;;;;;;4.00;3.67;;;;;23.13;36.02;101931.06;5098813;27;45554;-68
2022/06/12 08:47:02;;;;;;;;;5.33;3.67;;;;;23.17;35.77;101926.50;5098954;27;45290;-68
2022/06/12 08:49:47;;;;;;;;;1.00;1.00;;;;;23.24;35.97;101921.91;5090082;27;45549;-67
2022/06/12 08:52:19;;;;;;;;;1.00;1.00;;;;;23.30;35.14;101920.03;5104103;27;45440;-67
2022/06/12 08:54:57;;;;;;;;;2.00;1.00;;;;;23.40;35.36;101917.25;5105490;27;46269;-67
2022/06/12 08:57:36;;;;;;;;;1.00;1.00;;;;;23.52;35.57;101919.84;5102558;27;45526;-68
2022/06/12 09:00:12;;;;;;;;;1.33;0.67;;;;;23.60;35.09;101917.06;5105426;27;45288;-68
2022/06/12 09:02:40;;;;;;;;;1.00;1.00;;;;;23.63;34.55;101909.75;5118293;27;45031;-65
2022/06/12 09:05:11;;;;;;;;;3.00;2.00;;;;;23.59;34.32;101897.03;5125143;27;45720;-65
2022/06/12 09:07:54;;;;;;;;;1.00;1.00;;;;;23.64;33.63;101913.38;5109628;27;45282;-67
2022/06/12 09:10:35;;;;;;;;;2.00;2.00;;;;;23.69;33.92;101903.31;5098251;27;45414;-65
2022/06/12 09:13:15;;;;;;;;;4.67;1.67;;;;;23.77;35.07;101909.59;5099317;27;45354;-68
2022/06/12 09:15:46;;;;;;;;;1.00;1.00;;;;;23.82;35.66;101905.03;5099541;27;46460;-66
2022/06/12 09:18:14;;;;;;;;;1.67;0.67;;;;;23.84;35.01;101895.03;5098929;27;45381;-69
2022/06/12 09:20:44;;;;;;;;;5.67;3.33;;;;;23.91;35.07;101902.22;5100534;27;45512;-69
2022/06/12 09:23:44;;;;;;;;;2.33;2.33;;;;;23.97;35.14;101895.78;5098482;27;45598;-69
2022/06/12 09:26:39;;;;;;;;;1.00;1.00;;;;;24.06;34.91;101895.69;5103063;27;46487;-70
2022/06/12 09:29:29;;;;;;;;;2.00;2.00;;;;;24.10;35.16;101893.81;5094557;27;46431;-69
2022/06/12 09:32:00;;;;;;;;;2.00;1.67;;;;;24.23;34.86;101900.06;5078586;27;45644;-69
2022/06/12 09:34:38;;;;;;;;;3.00;1.00;;;;;24.27;35.50;101897.28;5101734;27;45477;-67
2022/06/12 09:40:50;;;;;;;;;1.00;1.00;;;;;24.31;34.93;101895.41;5099644;27;45346;-68
2022/06/12 09:43:37;;;;;;;;;2.00;2.00;;;;;24.38;34.30;101897.13;5101565;27;45440;-67
2022/06/12 09:46:23;;;;;;;;;3.00;2.67;;;;;24.34;34.54;101899.94;5100495;27;45338;-67
2022/06/12 09:49:18;;;;;;;;;2.00;2.00;;;;;24.36;34.67;101903.53;5097693;27;45352;-68
2022/06/12 09:52:13;;;;;;;;;1.00;1.00;;;;;24.40;34.64;101895.28;5074385;27;45594;-67
2022/06/12 09:54:57;;;;;;;;;2.00;2.00;;;;;24.47;34.09;101897.00;5103377;27;45710;-67
2022/06/12 09:57:47;;;;;;;;;1.00;1.00;;;;;24.56;33.44;101900.59;5097836;27;45666;-67
2022/06/12 10:00:21;;;;;;;;;1.00;1.00;;;;;24.64;33.87;101902.28;5101884;27;45483;-65
2022/06/12 10:02:52;;;;;;;;;1.67;1.67;;;;;24.77;33.36;101902.13;5103190;27;45719;-66
2022/06/12 10:05:17;;;;;;;;;3.00;2.00;;;;;24.84;32.94;101895.63;5099340;27;45725;-66
2022/06/12 10:08:07;;;;;;;;;2.00;2.00;;;;;24.92;32.73;101892.78;5101370;27;45425;-69
2022/06/12 10:10:39;;;;;;;;;1.00;1.00;;;;;24.85;33.50;101886.50;5079451;27;47169;-67
2022/06/12 10:13:11;;;;;;;;;3.00;1.67;;;;;24.91;33.49;101894.59;5100187;27;45674;-67
2022/06/12 10:15:47;;;;;;;;;2.67;2.67;;;;;24.91;32.90;101896.44;5102241;27;45411;-66
2022/06/12 10:18:20;;;;;;;;;1.00;1.00;;;;;24.87;33.01;101881.91;5107878;27;45569;-69
2022/06/12 10:20:51;;;;;;;;;3.33;1.33;;;;;24.77;33.89;101875.69;5100180;27;46249;-66
2022/06/12 10:23:18;;;;;;;;;4.33;3.00;;;;;24.92;33.92;101882.75;5094113;27;45363;-67
2022/06/12 10:25:51;;;;;;;;;2.00;2.00;;;;;24.58;34.12;101831.34;5108306;27;45577;-66
2022/06/12 10:28:35;;;;;;;;;2.33;2.33;;;;;24.87;34.43;101881.03;5102039;27;46561;-66
2022/06/12 10:31:10;;;;;;;;;3.33;2.00;;;;;24.92;34.87;101884.59;5102799;27;46016;-68
2022/06/12 10:33:52;;;;;;;;;1.67;1.33;;;;;24.93;34.82;101879.09;5101673;27;45425;-69
2022/06/12 10:36:30;;;;;;;;;3.33;2.67;;;;;24.93;33.57;101869.97;5102049;27;45363;-68
2022/06/12 10:39:13;;;;;;;;;5.33;3.00;;;;;24.99;33.69;101869.88;5101183;27;45511;-68
2022/06/12 10:41:42;;;;;;;;;2.67;2.00;;;;;24.96;34.06;101861.72;5106221;27;45691;-68
2022/06/12 10:44:26;;;;;;;;;4.00;3.67;;;;;24.90;34.22;101856.38;5098538;27;45247;-68
2022/06/12 10:46:52;;;;;;;;;3.33;3.33;;;;;24.82;34.45;101840.09;5105441;27;45598;-69
2022/06/12 10:49:21;;;;;;;;;1.67;1.67;;;;;24.97;34.30;101867.16;5098615;27;45593;-68
2022/06/12 10:51:48;;;;;;;;;5.00;3.33;;;;;24.99;34.07;101856.22;5099460;27;46429;-69
2022/06/12 10:54:16;;;;;;;;;5.00;2.00;;;;;24.88;34.18;101842.72;5084312;27;45497;-68
2022/06/12 10:56:46;;;;;;;;;3.67;3.67;;;;;24.93;34.23;101851.75;5100110;27;45603;-69
2022/06/12 10:59:35;;;;;;;;;4.00;2.67;;;;;24.96;33.80;101856.25;5097688;27;45429;-68
2022/06/12 11:02:06;;;;;;;;;3.33;1.67;;;;;24.52;33.86;101779.47;5104210;27;46657;-68
2022/06/12 11:04:40;;;;;;;;;3.00;3.00;;;;;24.92;34.27;101843.56;5102435;27;45355;-69
2022/06/12 11:07:08;;;;;;;;;4.33;2.33;;;;;24.88;34.78;101844.53;5102896;27;46495;-68
2022/06/12 11:10:05;;;;;;;;;3.67;3.33;;;;;24.89;34.17;101847.25;5100769;27;45335;-68
2022/06/12 11:13:01;;;;;;;;;2.00;2.00;;;;;24.93;33.20;101842.63;5097266;27;45395;-70
2022/06/12 11:15:49;;;;;;;;;12.33;5.00;;;;;24.91;33.43;101837.19;5104580;27;45588;-68
2022/06/12 11:18:33;;;;;;;;;2.00;2.00;;;;;24.88;33.21;101836.34;5101657;27;45576;-68
2022/06/12 11:21:26;;;;;;;;;3.00;2.00;;;;;24.78;32.08;101835.56;5085703;27;45633;-69
2022/06/12 11:24:02;;;;;;;;;3.33;2.33;;;;;24.79;32.47;101826.47;5100920;27;45430;-68
2022/06/12 11:26:39;;;;;;;;;2.67;2.67;;;;;24.77;32.06;101822.84;5097566;27;45434;-68
2022/06/12 11:29:16;;;;;;;;;2.00;2.00;;;;;24.80;32.13;101818.25;5099090;27;45581;-69
2022/06/12 11:31:44;;;;;;;;;4.00;3.00;;;;;24.78;32.33;101819.16;5105102;27;45535;-68
2022/06/12 11:34:24;;;;;;;;;5.00;0.00;;;;;24.82;31.16;101821.84;5093678;27;47057;-69
2022/06/12 11:36:57;;;;;;;;;9.00;6.00;;;;;24.80;31.48;101817.34;5098227;27;45357;-69
2022/06/12 11:39:52;;;;;;;;;6.67;6.67;;;;;24.78;30.72;101800.03;5106656;27;45394;-69
2022/06/12 11:42:18;;;;;;;;;1.33;1.33;;;;;24.78;28.10;101803.69;5101840;27;45561;-68
2022/06/12 11:45:00;;;;;;;;;1.00;1.00;;;;;24.75;28.81;101800.09;5098910;27;45311;-69
2022/06/12 11:47:44;;;;;;;;;7.00;4.00;;;;;24.63;29.80;101782.97;5101033;27;45463;-68
2022/06/12 11:50:36;;;;;;;;;2.00;2.00;;;;;24.62;29.08;101783.00;5102754;27;45431;-68
2022/06/12 11:53:21;;;;;;;;;2.00;2.00;;;;;24.61;30.51;101794.84;5101221;27;45410;-68
2022/06/12 11:55:56;;;;;;;;;2.00;2.00;;;;;24.59;29.94;101786.69;5103033;27;46520;-68
2022/06/12 11:58:27;;;;;;;;;5.00;2.33;;;;;24.54;29.47;101780.34;5103273;27;45435;-68
2022/06/12 12:01:10;;;;;;;;;2.67;2.67;;;;;24.31;30.30;101747.03;5096751;27;45246;-68
2022/06/12 12:04:00;;;;;;;;;1.67;1.67;;;;;24.46;30.17;101785.03;5102988;27;45467;-69
2022/06/12 12:06:59;;;;;;;;;3.00;2.00;;;;;24.42;31.13;101783.28;5097075;27;45535;-68